Union, WA

7:06 AM PDT on August 22, 2014 (GMT -0700)
Potlatch | Change Station
CLOSE
Current Station
Personal Weather Station
Location: Hoodsport, WA
Elevation: 9 ft
Nearby Weather Stations

Elev 9 ft 47.36 °N, 123.16 °W | Updated 41 seconds ago

Fog
Fog
53.6 °F
Feels Like 53.6 °F
N
0.0
Wind Variable Wind from North
Gusts 2.0 mph

Today
High -- | Low -- °F
--% Chance of Precip.
Yesterday
High -- | Low -- °F
Precip. -- in
6:18 AM 8:11 PM
Waning Crescent, 8% visible
Pressure 30.03 in
Visibility 0.2 miles
Clouds
Dew Point 52 °F
Humidity 93%
Rainfall 0.00 in
Snow Depth Not available.
UV Not available.
Pollen 3.00 out of 12
PM2.5 Good
Flu Activity Not available.
METAR KSHN 221353Z AUTO 00000KT 1/4SM FG VV002 10/10 A3002 RMK AO2 SLP167 T01000100 TSNO

More Conditions Fewer Conditions

Pressure 30.03 in
Visibility 0.2 miles
Clouds
Dew Point 52 °F
Humidity 93%
Rainfall 0.00 in
Snow Depth Not available.
UV Not available.
Pollen 3.00 out of 12
PM2.5 Good
Flu Activity Not available.
METAR KSHN 221353Z AUTO 00000KT 1/4SM FG VV002 10/10 A3002 RMK AO2 SLP167 T01000100 TSNO

More Conditions Fewer Conditions

10-Day Weather Forecast

Almanac

Astronomy

Aug. 22, 2014 Rise Set
Actual Time 6:18 AM PDT 8:11 PM PDT
Civil Twilight 5:45 AM PDT 8:43 PM PDT
Nautical Twilight 5:04 AM PDT 9:23 PM PDT
Astronomical Twilight 4:20 AM PDT 10:08 PM PDT
Moon 3:40 AM PDT 6:26 PM PDT
Length of Visible Light 14h 58m
Length of Day
13h 53m
Tomorrow will be 3m 11s shorter.
Waning Crescent, 8% of the Moon is Illuminated
Today
Waning Crescent
Aug 25
New
Sep 2
First Quarter
Sep 8
Full
Sep 15
Last Quarter

Today's Extremes

State Highs State Lows

Community

WunderPhotos

Upload Photos

1,746,171 photos uploaded!

Nearby

Air Quality

  Air Quality AQ Index Pollutant
Yesterday Good
OZONE
Yesterday Good
PM2.5
Current Good
PM2.5

Snow Depth

Station Depth Elevation
Mount Crag 0 in 4050 ft
Dungeness 0 in 4100 ft
Burnt Mountain 0 in 4200 ft
Alpine Meadows 0 in 3500 ft
Meadows Pass 0 in 3500 ft

Earthquake Activity

City Distance Mag. Time & Date
No recent earthquake activity has been reported nearby.
Minimum magnitude displayed is 2.5.

Coastal Water Temperatures

Place Temperature
Port Townsend, WA 53.1 °F
Seattle, WA 57.0 °F
Friday Harbor, WA 54.0 °F
Tacoma, WA 55.9 °F

Nearby Weather Stations